sensor_id;sensor_type;location;lat;lon;timestamp;P1;durP1;ratioP1;P2;durP2;ratioP2
23266;SDS011;11802;53.160;8.214;2023-09-07T00:01:07;4.85;;;3.47;;
23266;SDS011;11802;53.160;8.214;2023-09-07T00:03:33;6.65;;;3.40;;
23266;SDS011;11802;53.160;8.214;2023-09-07T00:05:58;7.25;;;3.80;;
23266;SDS011;11802;53.160;8.214;2023-09-07T00:08:24;4.85;;;3.55;;
23266;SDS011;11802;53.160;8.214;2023-09-07T00:10:50;6.00;;;3.97;;
23266;SDS011;11802;53.160;8.214;2023-09-07T00:13:16;5.88;;;4.13;;
23266;SDS011;11802;53.160;8.214;2023-09-07T00:15:42;6.95;;;4.03;;
23266;SDS011;11802;53.160;8.214;2023-09-07T00:18:08;5.32;;;3.97;;
23266;SDS011;11802;53.160;8.214;2023-09-07T00:20:33;4.80;;;3.85;;
23266;SDS011;11802;53.160;8.214;2023-09-07T00:22:59;6.53;;;4.22;;
23266;SDS011;11802;53.160;8.214;2023-09-07T00:25:26;7.72;;;4.38;;
23266;SDS011;11802;53.160;8.214;2023-09-07T00:27:52;6.10;;;4.07;;
23266;SDS011;11802;53.160;8.214;2023-09-07T00:30:17;7.53;;;4.53;;
23266;SDS011;11802;53.160;8.214;2023-09-07T00:32:43;9.02;;;4.30;;
23266;SDS011;11802;53.160;8.214;2023-09-07T00:35:09;7.28;;;4.28;;
23266;SDS011;11802;53.160;8.214;2023-09-07T00:37:35;8.15;;;4.80;;
23266;SDS011;11802;53.160;8.214;2023-09-07T00:40:01;6.88;;;3.70;;
23266;SDS011;11802;53.160;8.214;2023-09-07T00:42:28;5.38;;;4.05;;
23266;SDS011;11802;53.160;8.214;2023-09-07T00:44:54;5.38;;;4.28;;
23266;SDS011;11802;53.160;8.214;2023-09-07T00:47:19;8.15;;;4.05;;
23266;SDS011;11802;53.160;8.214;2023-09-07T00:49:46;6.75;;;4.18;;
23266;SDS011;11802;53.160;8.214;2023-09-07T00:52:12;5.97;;;3.95;;
23266;SDS011;11802;53.160;8.214;2023-09-07T00:54:37;4.75;;;3.55;;
23266;SDS011;11802;53.160;8.214;2023-09-07T00:57:04;7.50;;;4.50;;
23266;SDS011;11802;53.160;8.214;2023-09-07T00:59:32;6.65;;;4.72;;
23266;SDS011;11802;53.160;8.214;2023-09-07T01:01:58;7.82;;;4.40;;
23266;SDS011;11802;53.160;8.214;2023-09-07T01:04:23;8.38;;;4.60;;
23266;SDS011;11802;53.160;8.214;2023-09-07T01:06:52;5.65;;;4.32;;
23266;SDS011;11802;53.160;8.214;2023-09-07T01:09:28;5.88;;;4.03;;
23266;SDS011;11802;53.160;8.214;2023-09-07T01:11:57;7.32;;;4.63;;
23266;SDS011;11802;53.160;8.214;2023-09-07T01:14:22;5.70;;;4.60;;
23266;SDS011;11802;53.160;8.214;2023-09-07T01:16:48;6.43;;;4.68;;
23266;SDS011;11802;53.160;8.214;2023-09-07T01:19:15;5.30;;;4.00;;
23266;SDS011;11802;53.160;8.214;2023-09-07T01:21:40;6.95;;;4.78;;
23266;SDS011;11802;53.160;8.214;2023-09-07T01:24:07;5.40;;;4.10;;
23266;SDS011;11802;53.160;8.214;2023-09-07T01:26:34;6.13;;;4.50;;
23266;SDS011;11802;53.160;8.214;2023-09-07T01:29:04;6.40;;;4.38;;
23266;SDS011;11802;53.160;8.214;2023-09-07T01:31:36;6.45;;;4.70;;
23266;SDS011;11802;53.160;8.214;2023-09-07T01:34:03;6.65;;;4.43;;
23266;SDS011;11802;53.160;8.214;2023-09-07T01:36:29;8.43;;;4.85;;
23266;SDS011;11802;53.160;8.214;2023-09-07T01:38:55;9.70;;;5.10;;
23266;SDS011;11802;53.160;8.214;2023-09-07T01:41:21;8.68;;;5.22;;
23266;SDS011;11802;53.160;8.214;2023-09-07T01:43:46;7.70;;;5.18;;
23266;SDS011;11802;53.160;8.214;2023-09-07T01:46:12;5.97;;;5.00;;
23266;SDS011;11802;53.160;8.214;2023-09-07T01:48:37;9.20;;;4.95;;
23266;SDS011;11802;53.160;8.214;2023-09-07T01:51:03;8.10;;;5.35;;
23266;SDS011;11802;53.160;8.214;2023-09-07T01:53:28;7.35;;;5.13;;
23266;SDS011;11802;53.160;8.214;2023-09-07T01:55:54;10.27;;;5.40;;
23266;SDS011;11802;53.160;8.214;2023-09-07T01:58:20;8.23;;;5.60;;
23266;SDS011;11802;53.160;8.214;2023-09-07T02:00:46;6.72;;;5.15;;
23266;SDS011;11802;53.160;8.214;2023-09-07T02:03:12;8.40;;;5.90;;
23266;SDS011;11802;53.160;8.214;2023-09-07T02:05:38;7.18;;;5.32;;
23266;SDS011;11802;53.160;8.214;2023-09-07T02:08:04;8.93;;;5.40;;
23266;SDS011;11802;53.160;8.214;2023-09-07T02:10:30;6.72;;;5.75;;
23266;SDS011;11802;53.160;8.214;2023-09-07T02:12:55;8.05;;;5.82;;
23266;SDS011;11802;53.160;8.214;2023-09-07T02:15:22;9.13;;;5.57;;
23266;SDS011;11802;53.160;8.214;2023-09-07T02:17:48;7.47;;;5.80;;
23266;SDS011;11802;53.160;8.214;2023-09-07T02:20:14;6.40;;;5.10;;
23266;SDS011;11802;53.160;8.214;2023-09-07T02:22:40;7.32;;;5.50;;
23266;SDS011;11802;53.160;8.214;2023-09-07T02:25:06;7.93;;;5.93;;
23266;SDS011;11802;53.160;8.214;2023-09-07T02:27:32;7.85;;;6.07;;
23266;SDS011;11802;53.160;8.214;2023-09-07T02:29:58;9.35;;;5.68;;
23266;SDS011;11802;53.160;8.214;2023-09-07T02:32:24;8.48;;;5.78;;
23266;SDS011;11802;53.160;8.214;2023-09-07T02:34:49;9.15;;;5.53;;
23266;SDS011;11802;53.160;8.214;2023-09-07T02:37:15;8.05;;;5.90;;
23266;SDS011;11802;53.160;8.214;2023-09-07T02:39:41;10.88;;;6.28;;
23266;SDS011;11802;53.160;8.214;2023-09-07T02:42:07;10.25;;;5.97;;
23266;SDS011;11802;53.160;8.214;2023-09-07T02:44:33;8.35;;;5.63;;
23266;SDS011;11802;53.160;8.214;2023-09-07T02:46:58;8.35;;;5.72;;
23266;SDS011;11802;53.160;8.214;2023-09-07T02:49:24;8.23;;;5.82;;
23266;SDS011;11802;53.160;8.214;2023-09-07T02:51:49;8.13;;;5.97;;
23266;SDS011;11802;53.160;8.214;2023-09-07T02:54:15;7.60;;;5.63;;
23266;SDS011;11802;53.160;8.214;2023-09-07T02:56:40;7.50;;;6.25;;
23266;SDS011;11802;53.160;8.214;2023-09-07T02:59:06;9.35;;;6.25;;
23266;SDS011;11802;53.160;8.214;2023-09-07T03:01:31;12.90;;;6.50;;
23266;SDS011;11802;53.160;8.214;2023-09-07T03:03:57;11.48;;;6.75;;
23266;SDS011;11802;53.160;8.214;2023-09-07T03:06:22;8.52;;;6.80;;
23266;SDS011;11802;53.160;8.214;2023-09-07T03:08:48;8.52;;;6.88;;
23266;SDS011;11802;53.160;8.214;2023-09-07T03:11:13;10.23;;;6.53;;
23266;SDS011;11802;53.160;8.214;2023-09-07T03:13:39;10.45;;;6.82;;
23266;SDS011;11802;53.160;8.214;2023-09-07T03:16:05;11.48;;;7.50;;
23266;SDS011;11802;53.160;8.214;2023-09-07T03:18:31;10.48;;;7.18;;
23266;SDS011;11802;53.160;8.214;2023-09-07T03:20:58;11.60;;;8.00;;
23266;SDS011;11802;53.160;8.214;2023-09-07T03:23:25;13.65;;;7.53;;
23266;SDS011;11802;53.160;8.214;2023-09-07T03:25:51;10.20;;;7.38;;
23266;SDS011;11802;53.160;8.214;2023-09-07T03:28:17;11.43;;;7.85;;
23266;SDS011;11802;53.160;8.214;2023-09-07T03:30:42;9.00;;;7.70;;
23266;SDS011;11802;53.160;8.214;2023-09-07T03:33:08;11.23;;;8.05;;
23266;SDS011;11802;53.160;8.214;2023-09-07T03:35:34;10.50;;;7.68;;
23266;SDS011;11802;53.160;8.214;2023-09-07T03:37:59;9.38;;;7.70;;
23266;SDS011;11802;53.160;8.214;2023-09-07T03:40:25;11.10;;;8.18;;
23266;SDS011;11802;53.160;8.214;2023-09-07T03:42:51;13.13;;;7.90;;
23266;SDS011;11802;53.160;8.214;2023-09-07T03:45:16;11.07;;;8.05;;
23266;SDS011;11802;53.160;8.214;2023-09-07T03:47:42;11.15;;;8.25;;
23266;SDS011;11802;53.160;8.214;2023-09-07T03:50:09;11.55;;;8.63;;
23266;SDS011;11802;53.160;8.214;2023-09-07T03:52:34;10.85;;;8.57;;
23266;SDS011;11802;53.160;8.214;2023-09-07T03:55:00;10.75;;;7.85;;
23266;SDS011;11802;53.160;8.214;2023-09-07T03:57:26;12.75;;;8.65;;
23266;SDS011;11802;53.160;8.214;2023-09-07T03:59:52;14.30;;;9.27;;
23266;SDS011;11802;53.160;8.214;2023-09-07T04:02:20;10.68;;;8.55;;
23266;SDS011;11802;53.160;8.214;2023-09-07T04:04:52;13.00;;;9.43;;
23266;SDS011;11802;53.160;8.214;2023-09-07T04:07:18;10.68;;;8.30;;
23266;SDS011;11802;53.160;8.214;2023-09-07T04:09:44;10.10;;;7.82;;
23266;SDS011;11802;53.160;8.214;2023-09-07T04:12:10;11.77;;;8.85;;
23266;SDS011;11802;53.160;8.214;2023-09-07T04:14:36;11.38;;;8.95;;
23266;SDS011;11802;53.160;8.214;2023-09-07T04:17:02;12.70;;;9.75;;
23266;SDS011;11802;53.160;8.214;2023-09-07T04:19:27;14.00;;;8.77;;
23266;SDS011;11802;53.160;8.214;2023-09-07T04:21:53;11.40;;;9.25;;
23266;SDS011;11802;53.160;8.214;2023-09-07T04:24:18;12.80;;;9.68;;
23266;SDS011;11802;53.160;8.214;2023-09-07T04:26:44;12.82;;;9.02;;
23266;SDS011;11802;53.160;8.214;2023-09-07T04:29:10;11.90;;;9.50;;
23266;SDS011;11802;53.160;8.214;2023-09-07T04:31:37;14.25;;;9.60;;
23266;SDS011;11802;53.160;8.214;2023-09-07T04:34:03;12.38;;;10.00;;
23266;SDS011;11802;53.160;8.214;2023-09-07T04:36:29;12.60;;;9.38;;
23266;SDS011;11802;53.160;8.214;2023-09-07T04:38:54;12.55;;;10.05;;
23266;SDS011;11802;53.160;8.214;2023-09-07T04:41:20;12.77;;;9.90;;
23266;SDS011;11802;53.160;8.214;2023-09-07T04:43:45;11.55;;;9.52;;
23266;SDS011;11802;53.160;8.214;2023-09-07T04:46:11;13.40;;;10.00;;
23266;SDS011;11802;53.160;8.214;2023-09-07T04:48:38;13.48;;;10.27;;
23266;SDS011;11802;53.160;8.214;2023-09-07T04:51:06;16.83;;;9.98;;
23266;SDS011;11802;53.160;8.214;2023-09-07T04:53:33;14.27;;;9.50;;
23266;SDS011;11802;53.160;8.214;2023-09-07T04:56:00;17.60;;;10.85;;
23266;SDS011;11802;53.160;8.214;2023-09-07T04:58:26;17.63;;;10.65;;
23266;SDS011;11802;53.160;8.214;2023-09-07T05:00:52;14.70;;;10.07;;
23266;SDS011;11802;53.160;8.214;2023-09-07T05:03:18;16.95;;;10.57;;
23266;SDS011;11802;53.160;8.214;2023-09-07T05:05:44;13.88;;;10.88;;
23266;SDS011;11802;53.160;8.214;2023-09-07T05:08:10;17.80;;;11.38;;
23266;SDS011;11802;53.160;8.214;2023-09-07T05:10:36;14.75;;;10.70;;
23266;SDS011;11802;53.160;8.214;2023-09-07T05:13:01;15.38;;;11.02;;
23266;SDS011;11802;53.160;8.214;2023-09-07T05:15:27;18.13;;;10.80;;
23266;SDS011;11802;53.160;8.214;2023-09-07T05:17:53;18.20;;;11.75;;
23266;SDS011;11802;53.160;8.214;2023-09-07T05:20:19;17.15;;;12.30;;
23266;SDS011;11802;53.160;8.214;2023-09-07T05:22:45;16.52;;;12.48;;
23266;SDS011;11802;53.160;8.214;2023-09-07T05:25:11;15.93;;;11.80;;
23266;SDS011;11802;53.160;8.214;2023-09-07T05:27:37;16.73;;;11.55;;
23266;SDS011;11802;53.160;8.214;2023-09-07T05:30:03;18.23;;;11.65;;
23266;SDS011;11802;53.160;8.214;2023-09-07T05:32:29;17.52;;;12.20;;
23266;SDS011;11802;53.160;8.214;2023-09-07T05:34:55;16.70;;;11.18;;
23266;SDS011;11802;53.160;8.214;2023-09-07T05:37:21;16.58;;;10.98;;
23266;SDS011;11802;53.160;8.214;2023-09-07T05:39:47;18.33;;;11.25;;
23266;SDS011;11802;53.160;8.214;2023-09-07T05:42:13;20.45;;;11.40;;
23266;SDS011;11802;53.160;8.214;2023-09-07T05:44:39;18.05;;;11.25;;
23266;SDS011;11802;53.160;8.214;2023-09-07T05:47:08;17.98;;;10.85;;
23266;SDS011;11802;53.160;8.214;2023-09-07T05:49:42;17.85;;;10.70;;
23266;SDS011;11802;53.160;8.214;2023-09-07T05:52:08;13.02;;;10.13;;
23266;SDS011;11802;53.160;8.214;2023-09-07T05:54:34;12.20;;;10.52;;
23266;SDS011;11802;53.160;8.214;2023-09-07T05:57:02;16.88;;;10.93;;
23266;SDS011;11802;53.160;8.214;2023-09-07T05:59:30;16.10;;;11.15;;
23266;SDS011;11802;53.160;8.214;2023-09-07T06:01:55;16.42;;;10.25;;
23266;SDS011;11802;53.160;8.214;2023-09-07T06:04:28;18.45;;;9.30;;
23266;SDS011;11802;53.160;8.214;2023-09-07T06:06:54;15.88;;;10.23;;
23266;SDS011;11802;53.160;8.214;2023-09-07T06:09:19;13.40;;;9.75;;
23266;SDS011;11802;53.160;8.214;2023-09-07T06:11:45;14.77;;;10.60;;
23266;SDS011;11802;53.160;8.214;2023-09-07T06:14:10;31.15;;;12.80;;
23266;SDS011;11802;53.160;8.214;2023-09-07T06:16:36;15.35;;;10.50;;
23266;SDS011;11802;53.160;8.214;2023-09-07T06:19:02;21.63;;;10.82;;
23266;SDS011;11802;53.160;8.214;2023-09-07T06:21:27;14.77;;;9.98;;
23266;SDS011;11802;53.160;8.214;2023-09-07T06:23:53;15.40;;;10.02;;
23266;SDS011;11802;53.160;8.214;2023-09-07T06:26:19;12.63;;;8.80;;
23266;SDS011;11802;53.160;8.214;2023-09-07T06:28:44;14.07;;;8.07;;
23266;SDS011;11802;53.160;8.214;2023-09-07T06:31:10;15.50;;;8.52;;
23266;SDS011;11802;53.160;8.214;2023-09-07T06:33:35;12.73;;;7.65;;
23266;SDS011;11802;53.160;8.214;2023-09-07T06:36:01;9.02;;;7.43;;
23266;SDS011;11802;53.160;8.214;2023-09-07T06:38:27;12.48;;;7.63;;
23266;SDS011;11802;53.160;8.214;2023-09-07T06:40:53;9.25;;;7.18;;
23266;SDS011;11802;53.160;8.214;2023-09-07T06:43:18;13.57;;;7.82;;
23266;SDS011;11802;53.160;8.214;2023-09-07T06:45:44;12.98;;;7.50;;
23266;SDS011;11802;53.160;8.214;2023-09-07T06:48:09;13.85;;;7.22;;
23266;SDS011;11802;53.160;8.214;2023-09-07T06:50:35;11.68;;;7.47;;
23266;SDS011;11802;53.160;8.214;2023-09-07T06:53:01;11.68;;;7.25;;
23266;SDS011;11802;53.160;8.214;2023-09-07T06:55:27;13.23;;;7.00;;
23266;SDS011;11802;53.160;8.214;2023-09-07T06:57:54;9.05;;;6.60;;
23266;SDS011;11802;53.160;8.214;2023-09-07T07:00:20;8.98;;;6.60;;
23266;SDS011;11802;53.160;8.214;2023-09-07T07:02:46;12.27;;;7.40;;
23266;SDS011;11802;53.160;8.214;2023-09-07T07:05:11;12.38;;;6.53;;
23266;SDS011;11802;53.160;8.214;2023-09-07T07:07:38;21.35;;;7.47;;
23266;SDS011;11802;53.160;8.214;2023-09-07T07:10:04;11.23;;;7.32;;
23266;SDS011;11802;53.160;8.214;2023-09-07T07:12:31;15.35;;;7.47;;
23266;SDS011;11802;53.160;8.214;2023-09-07T07:14:59;10.90;;;7.35;;
23266;SDS011;11802;53.160;8.214;2023-09-07T07:17:26;12.35;;;6.43;;
23266;SDS011;11802;53.160;8.214;2023-09-07T07:19:51;12.77;;;6.88;;
23266;SDS011;11802;53.160;8.214;2023-09-07T07:22:17;9.65;;;6.70;;
23266;SDS011;11802;53.160;8.214;2023-09-07T07:24:42;8.48;;;6.03;;
23266;SDS011;11802;53.160;8.214;2023-09-07T07:27:08;11.52;;;6.35;;
23266;SDS011;11802;53.160;8.214;2023-09-07T07:29:36;11.80;;;6.43;;
23266;SDS011;11802;53.160;8.214;2023-09-07T07:32:02;9.65;;;6.55;;
23266;SDS011;11802;53.160;8.214;2023-09-07T07:34:29;9.32;;;6.75;;
23266;SDS011;11802;53.160;8.214;2023-09-07T07:36:55;9.15;;;6.07;;
23266;SDS011;11802;53.160;8.214;2023-09-07T07:39:21;14.05;;;6.50;;
23266;SDS011;11802;53.160;8.214;2023-09-07T07:41:47;14.02;;;6.40;;
23266;SDS011;11802;53.160;8.214;2023-09-07T07:44:12;9.63;;;6.32;;
23266;SDS011;11802;53.160;8.214;2023-09-07T07:46:38;11.60;;;6.05;;
23266;SDS011;11802;53.160;8.214;2023-09-07T07:49:04;13.50;;;6.35;;
23266;SDS011;11802;53.160;8.214;2023-09-07T07:51:36;12.30;;;6.20;;
23266;SDS011;11802;53.160;8.214;2023-09-07T07:54:12;13.02;;;6.97;;
23266;SDS011;11802;53.160;8.214;2023-09-07T07:56:54;10.15;;;5.97;;
23266;SDS011;11802;53.160;8.214;2023-09-07T07:59:19;10.93;;;6.43;;
23266;SDS011;11802;53.160;8.214;2023-09-07T08:01:45;12.77;;;6.43;;
23266;SDS011;11802;53.160;8.214;2023-09-07T08:04:10;9.40;;;5.68;;
23266;SDS011;11802;53.160;8.214;2023-09-07T08:06:36;7.35;;;5.22;;
23266;SDS011;11802;53.160;8.214;2023-09-07T08:09:02;11.63;;;5.22;;
23266;SDS011;11802;53.160;8.214;2023-09-07T08:11:28;10.00;;;6.10;;
23266;SDS011;11802;53.160;8.214;2023-09-07T08:13:53;10.30;;;5.78;;
23266;SDS011;11802;53.160;8.214;2023-09-07T08:16:19;14.05;;;6.43;;
23266;SDS011;11802;53.160;8.214;2023-09-07T08:18:44;19.55;;;7.20;;
23266;SDS011;11802;53.160;8.214;2023-09-07T08:21:12;14.68;;;6.50;;
23266;SDS011;11802;53.160;8.214;2023-09-07T08:23:38;18.95;;;6.13;;
23266;SDS011;11802;53.160;8.214;2023-09-07T08:26:04;8.82;;;5.57;;
23266;SDS011;11802;53.160;8.214;2023-09-07T08:28:30;8.52;;;5.32;;
23266;SDS011;11802;53.160;8.214;2023-09-07T08:30:55;8.20;;;6.00;;
23266;SDS011;11802;53.160;8.214;2023-09-07T08:33:24;10.32;;;5.63;;
23266;SDS011;11802;53.160;8.214;2023-09-07T08:35:53;9.73;;;5.90;;
23266;SDS011;11802;53.160;8.214;2023-09-07T08:38:24;7.50;;;5.05;;
23266;SDS011;11802;53.160;8.214;2023-09-07T08:40:53;9.60;;;6.05;;
23266;SDS011;11802;53.160;8.214;2023-09-07T08:43:22;8.45;;;5.10;;
23266;SDS011;11802;53.160;8.214;2023-09-07T08:45:55;11.10;;;6.13;;
23266;SDS011;11802;53.160;8.214;2023-09-07T08:48:49;8.15;;;5.70;;
23266;SDS011;11802;53.160;8.214;2023-09-07T08:51:15;13.38;;;6.20;;
23266;SDS011;11802;53.160;8.214;2023-09-07T08:53:45;8.38;;;5.18;;
23266;SDS011;11802;53.160;8.214;2023-09-07T08:56:14;8.52;;;5.70;;
23266;SDS011;11802;53.160;8.214;2023-09-07T08:58:46;10.63;;;5.88;;
23266;SDS011;11802;53.160;8.214;2023-09-07T09:01:14;9.80;;;5.25;;
23266;SDS011;11802;53.160;8.214;2023-09-07T09:03:40;8.35;;;5.25;;
23266;SDS011;11802;53.160;8.214;2023-09-07T09:06:07;8.32;;;5.65;;
23266;SDS011;11802;53.160;8.214;2023-09-07T09:08:47;9.07;;;5.63;;
23266;SDS011;11802;53.160;8.214;2023-09-07T09:11:14;10.50;;;5.70;;
23266;SDS011;11802;53.160;8.214;2023-09-07T09:13:41;8.90;;;5.20;;
23266;SDS011;11802;53.160;8.214;2023-09-07T09:16:07;9.40;;;5.65;;
23266;SDS011;11802;53.160;8.214;2023-09-07T09:18:33;11.10;;;5.47;;
23266;SDS011;11802;53.160;8.214;2023-09-07T09:20:59;9.77;;;5.60;;
23266;SDS011;11802;53.160;8.214;2023-09-07T09:23:37;9.98;;;5.30;;
23266;SDS011;11802;53.160;8.214;2023-09-07T09:26:03;7.07;;;5.40;;
23266;SDS011;11802;53.160;8.214;2023-09-07T09:28:30;9.07;;;5.50;;
23266;SDS011;11802;53.160;8.214;2023-09-07T09:31:00;6.85;;;4.90;;
23266;SDS011;11802;53.160;8.214;2023-09-07T09:33:38;10.63;;;5.47;;
23266;SDS011;11802;53.160;8.214;2023-09-07T09:36:11;13.73;;;4.93;;
23266;SDS011;11802;53.160;8.214;2023-09-07T09:38:46;9.02;;;5.45;;
23266;SDS011;11802;53.160;8.214;2023-09-07T09:41:18;10.95;;;5.32;;
23266;SDS011;11802;53.160;8.214;2023-09-07T09:43:46;7.60;;;5.13;;
23266;SDS011;11802;53.160;8.214;2023-09-07T09:46:16;12.48;;;5.22;;
23266;SDS011;11802;53.160;8.214;2023-09-07T09:48:42;11.80;;;5.18;;
23266;SDS011;11802;53.160;8.214;2023-09-07T09:51:11;9.38;;;5.05;;
23266;SDS011;11802;53.160;8.214;2023-09-07T09:53:38;11.02;;;5.18;;
23266;SDS011;11802;53.160;8.214;2023-09-07T09:56:04;7.75;;;5.05;;
23266;SDS011;11802;53.160;8.214;2023-09-07T09:58:32;8.88;;;5.10;;
23266;SDS011;11802;53.160;8.214;2023-09-07T10:00:58;9.45;;;5.13;;
23266;SDS011;11802;53.160;8.214;2023-09-07T10:03:29;11.02;;;5.28;;
23266;SDS011;11802;53.160;8.214;2023-09-07T10:06:08;10.07;;;5.50;;
23266;SDS011;11802;53.160;8.214;2023-09-07T10:08:34;9.10;;;5.13;;
23266;SDS011;11802;53.160;8.214;2023-09-07T10:11:00;7.47;;;4.78;;
23266;SDS011;11802;53.160;8.214;2023-09-07T10:13:34;6.18;;;4.75;;
23266;SDS011;11802;53.160;8.214;2023-09-07T10:16:03;11.93;;;5.13;;
23266;SDS011;11802;53.160;8.214;2023-09-07T10:18:33;9.35;;;5.70;;
23266;SDS011;11802;53.160;8.214;2023-09-07T10:21:00;7.32;;;5.13;;
23266;SDS011;11802;53.160;8.214;2023-09-07T10:23:34;11.65;;;5.82;;
23266;SDS011;11802;53.160;8.214;2023-09-07T10:26:02;7.97;;;5.03;;
23266;SDS011;11802;53.160;8.214;2023-09-07T10:28:32;8.20;;;5.32;;
23266;SDS011;11802;53.160;8.214;2023-09-07T10:30:58;8.35;;;5.38;;
23266;SDS011;11802;53.160;8.214;2023-09-07T10:33:24;7.80;;;5.28;;
23266;SDS011;11802;53.160;8.214;2023-09-07T10:35:49;8.30;;;5.60;;
23266;SDS011;11802;53.160;8.214;2023-09-07T10:38:15;13.23;;;5.60;;
23266;SDS011;11802;53.160;8.214;2023-09-07T10:40:44;7.60;;;5.35;;
23266;SDS011;11802;53.160;8.214;2023-09-07T10:43:13;9.52;;;5.35;;
23266;SDS011;11802;53.160;8.214;2023-09-07T10:45:39;14.52;;;5.60;;
23266;SDS011;11802;53.160;8.214;2023-09-07T10:48:08;9.38;;;5.28;;
23266;SDS011;11802;53.160;8.214;2023-09-07T10:50:42;10.32;;;5.03;;
23266;SDS011;11802;53.160;8.214;2023-09-07T10:53:15;7.57;;;5.03;;
23266;SDS011;11802;53.160;8.214;2023-09-07T10:55:56;6.75;;;4.68;;
23266;SDS011;11802;53.160;8.214;2023-09-07T10:58:27;7.25;;;4.75;;
23266;SDS011;11802;53.160;8.214;2023-09-07T11:00:54;9.75;;;5.00;;
23266;SDS011;11802;53.160;8.214;2023-09-07T11:03:21;9.07;;;5.28;;
23266;SDS011;11802;53.160;8.214;2023-09-07T11:08:44;8.02;;;4.93;;
23266;SDS011;11802;53.160;8.214;2023-09-07T11:11:14;7.10;;;4.82;;
23266;SDS011;11802;53.160;8.214;2023-09-07T11:13:49;7.35;;;5.07;;
23266;SDS011;11802;53.160;8.214;2023-09-07T11:16:18;7.05;;;5.03;;
23266;SDS011;11802;53.160;8.214;2023-09-07T11:18:46;12.27;;;4.88;;
23266;SDS011;11802;53.160;8.214;2023-09-07T11:21:12;7.03;;;4.93;;
23266;SDS011;11802;53.160;8.214;2023-09-07T11:23:44;7.10;;;5.03;;
23266;SDS011;11802;53.160;8.214;2023-09-07T11:26:14;9.20;;;5.45;;
23266;SDS011;11802;53.160;8.214;2023-09-07T11:28:44;9.27;;;4.90;;
23266;SDS011;11802;53.160;8.214;2023-09-07T11:31:11;12.75;;;5.80;;
23266;SDS011;11802;53.160;8.214;2023-09-07T11:33:40;9.18;;;5.55;;
23266;SDS011;11802;53.160;8.214;2023-09-07T11:36:06;10.88;;;5.88;;
23266;SDS011;11802;53.160;8.214;2023-09-07T11:38:35;8.95;;;5.53;;
23266;SDS011;11802;53.160;8.214;2023-09-07T11:41:02;10.65;;;5.28;;
23266;SDS011;11802;53.160;8.214;2023-09-07T11:43:28;7.90;;;4.60;;
23266;SDS011;11802;53.160;8.214;2023-09-07T11:45:54;7.43;;;5.10;;
23266;SDS011;11802;53.160;8.214;2023-09-07T11:48:19;9.55;;;5.45;;
23266;SDS011;11802;53.160;8.214;2023-09-07T11:50:45;6.10;;;4.38;;
23266;SDS011;11802;53.160;8.214;2023-09-07T11:53:13;5.93;;;4.50;;
23266;SDS011;11802;53.160;8.214;2023-09-07T11:59:33;11.20;;;4.82;;
23266;SDS011;11802;53.160;8.214;2023-09-07T12:01:59;9.30;;;5.03;;
23266;SDS011;11802;53.160;8.214;2023-09-07T12:04:24;7.97;;;4.75;;
23266;SDS011;11802;53.160;8.214;2023-09-07T12:06:50;6.55;;;4.60;;
23266;SDS011;11802;53.160;8.214;2023-09-07T12:09:15;8.20;;;4.57;;
23266;SDS011;11802;53.160;8.214;2023-09-07T12:11:42;8.07;;;4.22;;
23266;SDS011;11802;53.160;8.214;2023-09-07T12:14:08;6.65;;;4.50;;
23266;SDS011;11802;53.160;8.214;2023-09-07T12:16:34;7.10;;;4.40;;
23266;SDS011;11802;53.160;8.214;2023-09-07T12:19:00;10.25;;;4.22;;
23266;SDS011;11802;53.160;8.214;2023-09-07T12:21:25;11.65;;;4.70;;
23266;SDS011;11802;53.160;8.214;2023-09-07T12:23:51;7.55;;;4.18;;
23266;SDS011;11802;53.160;8.214;2023-09-07T12:26:16;11.30;;;4.18;;
23266;SDS011;11802;53.160;8.214;2023-09-07T12:28:44;9.15;;;3.92;;
23266;SDS011;11802;53.160;8.214;2023-09-07T12:31:09;11.40;;;4.30;;
23266;SDS011;11802;53.160;8.214;2023-09-07T12:33:36;9.10;;;4.47;;
23266;SDS011;11802;53.160;8.214;2023-09-07T12:36:02;6.90;;;4.22;;
23266;SDS011;11802;53.160;8.214;2023-09-07T12:38:28;5.75;;;3.97;;
23266;SDS011;11802;53.160;8.214;2023-09-07T12:40:54;6.70;;;4.38;;
23266;SDS011;11802;53.160;8.214;2023-09-07T12:43:20;9.13;;;3.90;;
23266;SDS011;11802;53.160;8.214;2023-09-07T12:45:46;5.80;;;3.63;;
23266;SDS011;11802;53.160;8.214;2023-09-07T12:48:11;6.28;;;4.40;;
23266;SDS011;11802;53.160;8.214;2023-09-07T12:50:37;7.70;;;3.80;;
23266;SDS011;11802;53.160;8.214;2023-09-07T12:55:55;8.73;;;4.40;;
23266;SDS011;11802;53.160;8.214;2023-09-07T12:58:21;6.40;;;3.72;;
23266;SDS011;11802;53.160;8.214;2023-09-07T13:00:46;10.50;;;4.18;;
23266;SDS011;11802;53.160;8.214;2023-09-07T13:03:16;5.82;;;3.63;;
23266;SDS011;11802;53.160;8.214;2023-09-07T13:05:42;9.18;;;3.50;;
23266;SDS011;11802;53.160;8.214;2023-09-07T13:08:08;7.38;;;3.70;;
23266;SDS011;11802;53.160;8.214;2023-09-07T13:10:34;5.72;;;3.58;;
23266;SDS011;11802;53.160;8.214;2023-09-07T13:13:00;10.52;;;3.72;;
23266;SDS011;11802;53.160;8.214;2023-09-07T13:15:25;6.88;;;3.55;;
23266;SDS011;11802;53.160;8.214;2023-09-07T13:17:51;5.25;;;3.50;;
23266;SDS011;11802;53.160;8.214;2023-09-07T13:20:17;6.82;;;3.75;;
23266;SDS011;11802;53.160;8.214;2023-09-07T13:22:44;5.60;;;3.70;;
23266;SDS011;11802;53.160;8.214;2023-09-07T13:25:11;5.63;;;3.08;;
23266;SDS011;11802;53.160;8.214;2023-09-07T13:27:37;8.73;;;3.78;;
23266;SDS011;11802;53.160;8.214;2023-09-07T13:30:03;5.30;;;3.63;;
23266;SDS011;11802;53.160;8.214;2023-09-07T13:32:29;7.10;;;3.67;;
23266;SDS011;11802;53.160;8.214;2023-09-07T13:34:55;5.97;;;3.58;;
23266;SDS011;11802;53.160;8.214;2023-09-07T13:37:20;9.70;;;4.25;;
23266;SDS011;11802;53.160;8.214;2023-09-07T13:39:46;6.22;;;3.53;;
23266;SDS011;11802;53.160;8.214;2023-09-07T13:42:11;5.55;;;3.63;;
23266;SDS011;11802;53.160;8.214;2023-09-07T13:44:37;5.45;;;3.80;;
23266;SDS011;11802;53.160;8.214;2023-09-07T13:47:03;8.55;;;3.40;;
23266;SDS011;11802;53.160;8.214;2023-09-07T13:49:28;6.45;;;3.88;;
23266;SDS011;11802;53.160;8.214;2023-09-07T13:51:54;6.20;;;3.65;;
23266;SDS011;11802;53.160;8.214;2023-09-07T13:54:19;5.65;;;3.50;;
23266;SDS011;11802;53.160;8.214;2023-09-07T13:56:45;7.25;;;3.70;;
23266;SDS011;11802;53.160;8.214;2023-09-07T13:59:11;4.72;;;3.40;;
23266;SDS011;11802;53.160;8.214;2023-09-07T14:01:37;7.97;;;4.07;;
23266;SDS011;11802;53.160;8.214;2023-09-07T14:04:03;7.50;;;3.72;;
23266;SDS011;11802;53.160;8.214;2023-09-07T14:06:29;4.82;;;3.30;;
23266;SDS011;11802;53.160;8.214;2023-09-07T14:08:55;5.43;;;3.58;;
23266;SDS011;11802;53.160;8.214;2023-09-07T14:11:21;6.15;;;4.00;;
23266;SDS011;11802;53.160;8.214;2023-09-07T14:13:47;10.88;;;3.90;;
23266;SDS011;11802;53.160;8.214;2023-09-07T14:16:16;5.95;;;4.03;;
23266;SDS011;11802;53.160;8.214;2023-09-07T14:18:43;6.00;;;3.65;;
23266;SDS011;11802;53.160;8.214;2023-09-07T14:21:09;5.90;;;3.75;;
23266;SDS011;11802;53.160;8.214;2023-09-07T14:23:34;8.40;;;3.60;;
23266;SDS011;11802;53.160;8.214;2023-09-07T14:26:00;6.68;;;4.75;;
23266;SDS011;11802;53.160;8.214;2023-09-07T14:28:25;7.13;;;4.00;;
23266;SDS011;11802;53.160;8.214;2023-09-07T14:30:51;5.72;;;3.42;;
23266;SDS011;11802;53.160;8.214;2023-09-07T14:33:19;7.25;;;3.90;;
23266;SDS011;11802;53.160;8.214;2023-09-07T14:35:44;4.43;;;3.38;;
23266;SDS011;11802;53.160;8.214;2023-09-07T14:38:10;7.53;;;3.85;;
23266;SDS011;11802;53.160;8.214;2023-09-07T14:40:35;6.65;;;3.60;;
23266;SDS011;11802;53.160;8.214;2023-09-07T14:43:01;8.57;;;3.78;;
23266;SDS011;11802;53.160;8.214;2023-09-07T14:45:27;8.07;;;3.75;;
23266;SDS011;11802;53.160;8.214;2023-09-07T14:47:52;6.47;;;3.55;;